createdAt,value
2017-08-12T19:46:55.310Z,63.20
2017-08-12T19:49:22.890Z,64.00
2017-08-12T19:51:50.130Z,63.90
2017-08-12T19:54:17.587Z,63.90
2017-08-12T19:56:44.770Z,63.80
2017-08-12T19:59:12.397Z,63.80
2017-08-12T20:01:39.573Z,63.80
2017-08-12T20:04:06.808Z,63.80
2017-08-12T20:06:34.325Z,64.00
2017-08-12T20:09:01.507Z,63.90
2017-08-12T20:11:29.058Z,63.90
2017-08-12T20:13:56.329Z,64.00
2017-08-12T20:16:24.145Z,64.00
2017-08-12T20:18:52.060Z,64.00
2017-08-12T20:21:19.630Z,64.00
2017-08-12T20:23:46.875Z,64.00
2017-08-12T20:26:14.233Z,64.00
2017-08-12T20:28:41.684Z,64.10
2017-08-12T20:31:08.870Z,64.10
2017-08-12T20:33:36.220Z,64.10
2017-08-12T20:36:03.445Z,64.10
2017-08-12T20:38:30.901Z,64.10
2017-08-12T20:40:58.422Z,64.10
2017-08-12T20:43:25.594Z,64.10
2017-08-12T20:45:52.784Z,64.10
2017-08-12T20:48:19.965Z,64.10
2017-08-12T20:50:47.138Z,64.10
2017-08-12T20:53:14.416Z,64.10
2017-08-12T20:55:41.873Z,64.20
2017-08-12T20:58:09.332Z,64.20
2017-08-12T21:00:36.515Z,64.20
2017-08-12T21:03:03.685Z,64.20
2017-08-12T21:05:31.085Z,64.20
2017-08-12T21:07:58.550Z,64.20
2017-08-12T21:10:26.076Z,64.20
2017-08-12T21:12:53.457Z,64.30
2017-08-12T21:15:20.918Z,64.20
2017-08-12T21:17:48.108Z,64.20
2017-08-12T21:20:15.278Z,64.30
2017-08-12T21:22:42.461Z,64.30
2017-08-12T21:25:09.648Z,64.30
2017-08-12T21:27:36.979Z,64.30
2017-08-12T21:30:04.744Z,64.30
2017-08-12T21:32:32.257Z,64.30
2017-08-12T21:34:59.429Z,64.30
2017-08-12T21:37:27.116Z,64.30
2017-08-12T21:39:54.571Z,64.30
2017-08-12T21:42:22.029Z,64.30
2017-08-12T21:44:49.796Z,64.30
2017-08-12T21:47:16.973Z,64.30
2017-08-12T21:49:44.394Z,64.30
2017-08-12T21:52:11.565Z,64.30
2017-08-12T21:54:38.738Z,64.30
2017-08-12T21:57:06.206Z,64.30
2017-08-12T21:59:33.379Z,64.20
2017-08-12T22:02:00.564Z,64.20
2017-08-12T22:04:27.909Z,64.20
2017-08-12T22:06:55.426Z,64.30
2017-08-12T22:09:22.601Z,64.30
2017-08-12T22:11:49.972Z,64.30
2017-08-12T22:14:17.502Z,64.30
2017-08-12T22:16:44.724Z,64.30
2017-08-12T22:19:11.897Z,64.30
2017-08-12T22:21:39.189Z,64.30
2017-08-12T22:24:06.845Z,64.30
2017-08-12T22:26:34.032Z,64.40
2017-08-12T22:29:01.259Z,64.30
2017-08-12T22:31:28.448Z,64.30
2017-08-12T22:33:55.614Z,64.40
2017-08-12T22:36:22.959Z,64.40
2017-08-12T22:38:50.144Z,64.40
2017-08-12T22:41:17.666Z,64.40
2017-08-12T22:43:45.232Z,64.50
2017-08-12T22:46:12.533Z,64.10
2017-08-12T22:48:39.996Z,63.40
2017-08-12T22:51:07.180Z,62.60
2017-08-12T22:53:34.369Z,62.00
2017-08-12T22:56:01.559Z,61.40
2017-08-12T22:58:28.729Z,62.20
2017-08-12T23:00:55.892Z,62.50
2017-08-12T23:03:23.510Z,62.50
2017-08-12T23:05:51.016Z,62.50
2017-08-12T23:08:18.534Z,62.60
2017-08-12T23:10:45.735Z,62.70
2017-08-12T23:13:12.917Z,62.90
2017-08-12T23:15:40.489Z,63.10
2017-08-12T23:18:07.825Z,63.30
2017-08-12T23:20:35.401Z,63.20
2017-08-12T23:23:02.588Z,63.40
2017-08-12T23:25:30.206Z,63.40
2017-08-12T23:27:57.377Z,63.60
2017-08-12T23:30:24.545Z,63.50
2017-08-12T23:32:51.718Z,63.60
2017-08-12T23:35:19.398Z,63.60
2017-08-12T23:37:46.989Z,63.70
2017-08-12T23:40:14.635Z,63.60
2017-08-12T23:42:41.886Z,63.80
2017-08-12T23:45:09.352Z,63.80
2017-08-12T23:47:36.887Z,63.90
2017-08-12T23:50:04.274Z,63.80
2017-08-12T23:52:31.796Z,63.80
2017-08-12T23:54:59.181Z,63.80
2017-08-12T23:57:26.640Z,63.80
2017-08-12T23:59:54.301Z,64.00
